sensor_id;sensor_type;location;lat;lon;timestamp;pressure;altitude;pressure_sealevel;temperature;humidity
18819;BME280;9537;45.594;9.294;2023-08-20T00:00:12;99910.94;;;27.93;71.25
18819;BME280;9537;45.594;9.294;2023-08-20T00:01:14;99911.53;;;27.90;71.43
18819;BME280;9537;45.594;9.294;2023-08-20T00:02:23;99908.81;;;27.90;71.39
18819;BME280;9537;45.594;9.294;2023-08-20T00:03:25;99911.81;;;27.88;71.56
18819;BME280;9537;45.594;9.294;2023-08-20T00:04:26;99911.81;;;27.88;71.44
18819;BME280;9537;45.594;9.294;2023-08-20T00:05:29;99905.03;;;27.85;71.63
18819;BME280;9537;45.594;9.294;2023-08-20T00:06:32;99905.84;;;27.86;71.90
18819;BME280;9537;45.594;9.294;2023-08-20T00:07:34;99903.69;;;27.83;71.82
18819;BME280;9537;45.594;9.294;2023-08-20T00:08:35;99909.94;;;27.83;71.81
18819;BME280;9537;45.594;9.294;2023-08-20T00:09:36;99906.72;;;27.81;71.73
18819;BME280;9537;45.594;9.294;2023-08-20T00:10:38;99910.50;;;27.80;71.79
18819;BME280;9537;45.594;9.294;2023-08-20T00:11:39;99906.41;;;27.78;71.91
18819;BME280;9537;45.594;9.294;2023-08-20T00:12:40;99908.63;;;27.76;72.00
18819;BME280;9537;45.594;9.294;2023-08-20T00:13:41;99909.94;;;27.78;72.10
18819;BME280;9537;45.594;9.294;2023-08-20T00:14:52;99907.50;;;27.77;72.19
18819;BME280;9537;45.594;9.294;2023-08-20T00:15:55;99904.00;;;27.76;72.19
18819;BME280;9537;45.594;9.294;2023-08-20T00:16:56;99905.06;;;27.75;72.33
18819;BME280;9537;45.594;9.294;2023-08-20T00:17:58;99908.63;;;27.76;72.45
18819;BME280;9537;45.594;9.294;2023-08-20T00:18:59;99914.88;;;27.71;72.64
18819;BME280;9537;45.594;9.294;2023-08-20T00:20:02;99913.25;;;27.70;72.46
18819;BME280;9537;45.594;9.294;2023-08-20T00:21:09;99908.41;;;27.67;72.45
18819;BME280;9537;45.594;9.294;2023-08-20T00:22:13;99902.44;;;27.65;72.47
18819;BME280;9537;45.594;9.294;2023-08-20T00:23:15;99903.50;;;27.64;72.56
18819;BME280;9537;45.594;9.294;2023-08-20T00:24:17;99909.22;;;27.62;72.71
18819;BME280;9537;45.594;9.294;2023-08-20T00:25:19;99911.13;;;27.62;72.21
18819;BME280;9537;45.594;9.294;2023-08-20T00:26:21;99912.75;;;27.63;72.62
18819;BME280;9537;45.594;9.294;2023-08-20T00:27:22;99914.66;;;27.62;72.55
18819;BME280;9537;45.594;9.294;2023-08-20T00:28:23;99911.13;;;27.62;72.76
18819;BME280;9537;45.594;9.294;2023-08-20T00:29:24;99905.44;;;27.58;72.92
18819;BME280;9537;45.594;9.294;2023-08-20T00:30:26;99904.91;;;27.61;72.71
18819;BME280;9537;45.594;9.294;2023-08-20T00:31:27;99908.41;;;27.62;72.70
18819;BME280;9537;45.594;9.294;2023-08-20T00:32:29;99901.09;;;27.62;72.25
18819;BME280;9537;45.594;9.294;2023-08-20T00:33:29;99905.97;;;27.60;72.74
18819;BME280;9537;45.594;9.294;2023-08-20T00:34:31;99895.41;;;27.59;72.89
18819;BME280;9537;45.594;9.294;2023-08-20T00:35:32;99902.44;;;27.60;72.74
18819;BME280;9537;45.594;9.294;2023-08-20T00:36:33;99907.88;;;27.60;72.97
18819;BME280;9537;45.594;9.294;2023-08-20T00:37:36;99910.84;;;27.58;73.21
18819;BME280;9537;45.594;9.294;2023-08-20T00:38:36;99905.44;;;27.58;73.07
18819;BME280;9537;45.594;9.294;2023-08-20T00:39:38;99905.72;;;27.57;73.22
18819;BME280;9537;45.594;9.294;2023-08-20T00:40:39;99901.91;;;27.58;73.49
18819;BME280;9537;45.594;9.294;2023-08-20T00:41:41;99901.09;;;27.57;73.41
18819;BME280;9537;45.594;9.294;2023-08-20T00:42:42;99906.28;;;27.54;73.68
18819;BME280;9537;45.594;9.294;2023-08-20T00:43:46;99910.38;;;27.51;73.59
18819;BME280;9537;45.594;9.294;2023-08-20T00:44:47;99904.94;;;27.51;73.56
18819;BME280;9537;45.594;9.294;2023-08-20T00:45:49;99913.34;;;27.50;73.30
18819;BME280;9537;45.594;9.294;2023-08-20T00:46:50;99910.63;;;27.50;73.10
18819;BME280;9537;45.594;9.294;2023-08-20T00:47:53;99911.72;;;27.49;72.84
18819;BME280;9537;45.594;9.294;2023-08-20T00:48:53;99908.22;;;27.48;72.93
18819;BME280;9537;45.594;9.294;2023-08-20T00:49:56;99913.09;;;27.46;72.96
18819;BME280;9537;45.594;9.294;2023-08-20T00:50:57;99917.72;;;27.46;72.80
18819;BME280;9537;45.594;9.294;2023-08-20T00:51:59;99917.16;;;27.44;72.96
18819;BME280;9537;45.594;9.294;2023-08-20T00:53:01;99919.88;;;27.44;72.86
18819;BME280;9537;45.594;9.294;2023-08-20T00:54:04;99924.25;;;27.39;73.08
18819;BME280;9537;45.594;9.294;2023-08-20T00:55:08;99924.25;;;27.39;73.13
18819;BME280;9537;45.594;9.294;2023-08-20T00:56:10;99918.81;;;27.39;73.17
18819;BME280;9537;45.594;9.294;2023-08-20T00:57:12;99918.03;;;27.39;73.32
18819;BME280;9537;45.594;9.294;2023-08-20T00:58:14;99918.28;;;27.37;73.29
18819;BME280;9537;45.594;9.294;2023-08-20T00:59:15;99918.28;;;27.37;73.54
18819;BME280;9537;45.594;9.294;2023-08-20T01:00:18;99913.97;;;27.36;73.58
18819;BME280;9537;45.594;9.294;2023-08-20T01:01:18;99920.22;;;27.32;73.91
18819;BME280;9537;45.594;9.294;2023-08-20T01:02:19;99922.91;;;27.32;73.84
18819;BME280;9537;45.594;9.294;2023-08-20T01:03:21;99916.69;;;27.31;74.09
18819;BME280;9537;45.594;9.294;2023-08-20T01:04:22;99922.91;;;27.32;74.24
18819;BME280;9537;45.594;9.294;2023-08-20T01:05:24;99916.69;;;27.31;74.15
18819;BME280;9537;45.594;9.294;2023-08-20T01:06:32;99926.19;;;27.29;74.19
18819;BME280;9537;45.594;9.294;2023-08-20T01:07:46;99915.63;;;27.27;74.08
18819;BME280;9537;45.594;9.294;2023-08-20T01:08:57;99919.41;;;27.26;73.82
18819;BME280;9537;45.594;9.294;2023-08-20T01:10:08;99922.94;;;27.27;73.79
18819;BME280;9537;45.594;9.294;2023-08-20T01:11:12;99923.47;;;27.29;73.66
18819;BME280;9537;45.594;9.294;2023-08-20T01:12:17;99920.22;;;27.27;73.58
18819;BME280;9537;45.594;9.294;2023-08-20T01:13:20;99921.06;;;27.27;73.62
18819;BME280;9537;45.594;9.294;2023-08-20T01:14:22;99918.34;;;27.27;73.82
18819;BME280;9537;45.594;9.294;2023-08-20T01:15:23;99920.50;;;27.25;73.92
18819;BME280;9537;45.594;9.294;2023-08-20T01:16:25;99927.03;;;27.19;74.52
18819;BME280;9537;45.594;9.294;2023-08-20T01:17:26;99934.88;;;27.21;74.55
18819;BME280;9537;45.594;9.294;2023-08-20T01:18:27;99937.88;;;27.19;74.81
18819;BME280;9537;45.594;9.294;2023-08-20T01:19:28;99934.91;;;27.15;74.92
18819;BME280;9537;45.594;9.294;2023-08-20T01:20:37;99936.78;;;27.15;75.09
18819;BME280;9537;45.594;9.294;2023-08-20T01:21:47;99938.97;;;27.18;75.01
18819;BME280;9537;45.594;9.294;2023-08-20T01:24:38;99935.72;;;27.16;74.86
18819;BME280;9537;45.594;9.294;2023-08-20T01:25:54;99941.16;;;27.16;74.84
18819;BME280;9537;45.594;9.294;2023-08-20T01:27:10;99943.28;;;27.14;74.65
18819;BME280;9537;45.594;9.294;2023-08-20T01:28:25;99943.03;;;27.15;73.94
18819;BME280;9537;45.594;9.294;2023-08-20T01:29:26;99944.91;;;27.10;74.17
18819;BME280;9537;45.594;9.294;2023-08-20T01:30:30;99938.16;;;27.07;74.08
18819;BME280;9537;45.594;9.294;2023-08-20T01:31:32;99941.41;;;27.09;73.93
18819;BME280;9537;45.594;9.294;2023-08-20T01:32:35;99940.59;;;27.09;73.93
18819;BME280;9537;45.594;9.294;2023-08-20T01:33:37;99943.28;;;27.09;74.04
18819;BME280;9537;45.594;9.294;2023-08-20T01:34:39;99936.53;;;27.06;74.36
18819;BME280;9537;45.594;9.294;2023-08-20T01:35:40;99936.81;;;27.05;74.41
18819;BME280;9537;45.594;9.294;2023-08-20T01:36:41;99951.97;;;27.06;74.51
18819;BME280;9537;45.594;9.294;2023-08-20T01:37:42;99935.72;;;27.01;74.62
18819;BME280;9537;45.594;9.294;2023-08-20T01:38:44;99943.59;;;27.02;74.65
18819;BME280;9537;45.594;9.294;2023-08-20T01:39:45;99943.31;;;27.04;74.52
18819;BME280;9537;45.594;9.294;2023-08-20T01:40:47;99946.84;;;27.04;74.09
18819;BME280;9537;45.594;9.294;2023-08-20T01:41:47;99945.75;;;27.00;74.33
18819;BME280;9537;45.594;9.294;2023-08-20T01:42:49;99946.06;;;26.99;74.43
18819;BME280;9537;45.594;9.294;2023-08-20T01:43:51;99946.06;;;26.99;74.21
18819;BME280;9537;45.594;9.294;2023-08-20T01:44:53;99947.66;;;27.00;74.12
18819;BME280;9537;45.594;9.294;2023-08-20T01:45:54;99949.56;;;26.99;74.28
18819;BME280;9537;45.594;9.294;2023-08-20T01:46:55;99947.13;;;26.98;74.13
18819;BME280;9537;45.594;9.294;2023-08-20T01:47:56;99952.28;;;26.99;74.09
18819;BME280;9537;45.594;9.294;2023-08-20T01:48:58;99955.25;;;26.98;74.09
18819;BME280;9537;45.594;9.294;2023-08-20T01:49:59;99956.06;;;26.98;74.07
18819;BME280;9537;45.594;9.294;2023-08-20T01:51:01;99956.34;;;26.96;74.40
18819;BME280;9537;45.594;9.294;2023-08-20T01:52:02;99953.09;;;26.94;74.13
18819;BME280;9537;45.594;9.294;2023-08-20T01:53:05;99953.09;;;26.94;74.47
18819;BME280;9537;45.594;9.294;2023-08-20T01:54:06;99955.78;;;26.94;74.27
18819;BME280;9537;45.594;9.294;2023-08-20T01:55:08;99953.38;;;26.93;74.27
18819;BME280;9537;45.594;9.294;2023-08-20T01:56:11;99952.53;;;26.92;74.46
18819;BME280;9537;45.594;9.294;2023-08-20T01:57:13;99952.53;;;26.92;74.20
18819;BME280;9537;45.594;9.294;2023-08-20T01:58:14;99950.13;;;26.91;74.13
18819;BME280;9537;45.594;9.294;2023-08-20T01:59:17;99954.72;;;26.90;74.32
18819;BME280;9537;45.594;9.294;2023-08-20T02:00:18;99956.34;;;26.86;74.59
18819;BME280;9537;45.594;9.294;2023-08-20T02:01:20;99951.47;;;26.83;74.70
18819;BME280;9537;45.594;9.294;2023-08-20T02:02:21;99955.84;;;26.84;74.75
18819;BME280;9537;45.594;9.294;2023-08-20T02:03:23;99952.56;;;26.82;74.90
18819;BME280;9537;45.594;9.294;2023-08-20T02:04:23;99949.56;;;26.84;74.76
18819;BME280;9537;45.594;9.294;2023-08-20T02:05:25;99947.97;;;26.83;74.67
18819;BME280;9537;45.594;9.294;2023-08-20T02:06:26;99950.41;;;26.84;74.54
18819;BME280;9537;45.594;9.294;2023-08-20T02:07:28;99942.00;;;26.81;74.55
18819;BME280;9537;45.594;9.294;2023-08-20T02:08:28;99951.47;;;26.83;74.82
18819;BME280;9537;45.594;9.294;2023-08-20T02:09:30;99944.16;;;26.84;74.44
18819;BME280;9537;45.594;9.294;2023-08-20T02:10:31;99955.00;;;26.84;74.77
18819;BME280;9537;45.594;9.294;2023-08-20T02:11:32;99947.16;;;26.82;74.66
18819;BME280;9537;45.594;9.294;2023-08-20T02:12:36;99950.94;;;26.81;74.64
18819;BME280;9537;45.594;9.294;2023-08-20T02:13:36;99954.75;;;26.80;74.67
18819;BME280;9537;45.594;9.294;2023-08-20T02:14:40;99948.50;;;26.80;74.84
18819;BME280;9537;45.594;9.294;2023-08-20T02:15:40;99953.13;;;26.79;74.74
18819;BME280;9537;45.594;9.294;2023-08-20T02:16:42;99950.41;;;26.79;74.55
18819;BME280;9537;45.594;9.294;2023-08-20T02:17:43;99951.22;;;26.74;74.87
18819;BME280;9537;45.594;9.294;2023-08-20T02:18:45;99949.88;;;26.77;75.22
18819;BME280;9537;45.594;9.294;2023-08-20T02:19:46;99942.03;;;26.76;74.99
18819;BME280;9537;45.594;9.294;2023-08-20T02:20:48;99943.09;;;26.74;74.92
18819;BME280;9537;45.594;9.294;2023-08-20T02:21:48;99944.19;;;26.73;75.02
18819;BME280;9537;45.594;9.294;2023-08-20T02:22:49;99941.72;;;26.72;75.03
18819;BME280;9537;45.594;9.294;2023-08-20T02:23:51;99942.53;;;26.72;75.14
18819;BME280;9537;45.594;9.294;2023-08-20T02:24:52;99947.16;;;26.72;75.15
18819;BME280;9537;45.594;9.294;2023-08-20T02:25:53;99939.56;;;26.74;74.94
18819;BME280;9537;45.594;9.294;2023-08-20T02:26:54;99940.66;;;26.73;75.02
18819;BME280;9537;45.594;9.294;2023-08-20T02:27:56;99940.94;;;26.71;75.16
18819;BME280;9537;45.594;9.294;2023-08-20T02:28:56;99935.50;;;26.71;75.23
18819;BME280;9537;45.594;9.294;2023-08-20T02:30:00;99938.50;;;26.70;75.26
18819;BME280;9537;45.594;9.294;2023-08-20T02:31:03;99941.72;;;26.67;75.15
18819;BME280;9537;45.594;9.294;2023-08-20T02:32:06;99944.72;;;26.70;75.14
18819;BME280;9537;45.594;9.294;2023-08-20T02:33:07;99945.53;;;26.66;75.27
18819;BME280;9537;45.594;9.294;2023-08-20T02:34:10;99937.69;;;26.64;75.56
18819;BME280;9537;45.594;9.294;2023-08-20T02:35:11;99940.41;;;26.64;75.36
18819;BME280;9537;45.594;9.294;2023-08-20T02:36:15;99942.03;;;26.65;75.32
18819;BME280;9537;45.594;9.294;2023-08-20T02:37:16;99941.47;;;26.63;75.18
18819;BME280;9537;45.594;9.294;2023-08-20T02:38:17;99936.34;;;26.62;75.42
18819;BME280;9537;45.594;9.294;2023-08-20T02:39:18;99939.59;;;26.59;75.45
18819;BME280;9537;45.594;9.294;2023-08-20T02:40:20;99938.50;;;26.60;75.61
18819;BME280;9537;45.594;9.294;2023-08-20T02:41:21;99940.13;;;26.61;75.79
18819;BME280;9537;45.594;9.294;2023-08-20T02:42:23;99944.72;;;26.60;75.57
18819;BME280;9537;45.594;9.294;2023-08-20T02:43:24;99940.97;;;26.61;75.72
18819;BME280;9537;45.594;9.294;2023-08-20T02:44:25;99939.06;;;26.62;75.79
18819;BME280;9537;45.594;9.294;2023-08-20T02:45:27;99938.50;;;26.60;75.84
18819;BME280;9537;45.594;9.294;2023-08-20T02:46:29;99936.59;;;26.60;75.60
18819;BME280;9537;45.594;9.294;2023-08-20T02:47:30;99937.41;;;26.61;75.59
18819;BME280;9537;45.594;9.294;2023-08-20T02:48:32;99935.53;;;26.61;75.36
18819;BME280;9537;45.594;9.294;2023-08-20T02:49:32;99938.50;;;26.65;75.17
18819;BME280;9537;45.594;9.294;2023-08-20T02:50:34;99936.88;;;26.64;75.45
18819;BME280;9537;45.594;9.294;2023-08-20T02:51:35;99936.88;;;26.64;75.14
18819;BME280;9537;45.594;9.294;2023-08-20T02:52:37;99935.00;;;26.64;75.27
18819;BME280;9537;45.594;9.294;2023-08-20T02:53:38;99936.88;;;26.64;75.40
18819;BME280;9537;45.594;9.294;2023-08-20T02:54:39;99942.03;;;26.65;74.74
18819;BME280;9537;45.594;9.294;2023-08-20T02:55:40;99938.50;;;26.65;75.22
18819;BME280;9537;45.594;9.294;2023-08-20T02:56:42;99943.94;;;26.65;74.94
18819;BME280;9537;45.594;9.294;2023-08-20T02:57:43;99935.25;;;26.63;75.04
18819;BME280;9537;45.594;9.294;2023-08-20T02:58:45;99941.47;;;26.63;75.41
18819;BME280;9537;45.594;9.294;2023-08-20T02:59:46;99937.97;;;26.63;75.29
18819;BME280;9537;45.594;9.294;2023-08-20T03:00:48;99941.75;;;26.62;75.33
18819;BME280;9537;45.594;9.294;2023-08-20T03:01:50;99940.13;;;26.61;75.28
18819;BME280;9537;45.594;9.294;2023-08-20T03:02:50;99943.13;;;26.59;75.71
18819;BME280;9537;45.594;9.294;2023-08-20T03:03:52;99935.53;;;26.56;75.81
18819;BME280;9537;45.594;9.294;2023-08-20T03:04:53;99934.19;;;26.54;75.88
18819;BME280;9537;45.594;9.294;2023-08-20T03:05:56;99934.19;;;26.54;75.76
18819;BME280;9537;45.594;9.294;2023-08-20T03:06:57;99936.06;;;26.53;76.17
18819;BME280;9537;45.594;9.294;2023-08-20T03:07:58;99942.56;;;26.52;76.02
18819;BME280;9537;45.594;9.294;2023-08-20T03:08:59;99938.47;;;26.49;76.27
18819;BME280;9537;45.594;9.294;2023-08-20T03:10:01;99941.72;;;26.46;76.13
18819;BME280;9537;45.594;9.294;2023-08-20T03:11:03;99943.34;;;26.47;76.21
18819;BME280;9537;45.594;9.294;2023-08-20T03:12:04;99940.91;;;26.46;76.36
18819;BME280;9537;45.594;9.294;2023-08-20T03:13:06;99945.53;;;26.45;76.53
18819;BME280;9537;45.594;9.294;2023-08-20T03:14:06;99934.94;;;26.44;76.41
18819;BME280;9537;45.594;9.294;2023-08-20T03:15:08;99946.06;;;26.42;76.64
18819;BME280;9537;45.594;9.294;2023-08-20T03:16:10;99934.69;;;26.40;76.67
18819;BME280;9537;45.594;9.294;2023-08-20T03:17:12;99945.25;;;26.42;76.28
18819;BME280;9537;45.594;9.294;2023-08-20T03:18:13;99943.34;;;26.42;76.38
18819;BME280;9537;45.594;9.294;2023-08-20T03:19:15;99944.97;;;26.43;76.57
18819;BME280;9537;45.594;9.294;2023-08-20T03:20:16;99944.44;;;26.41;76.44
18819;BME280;9537;45.594;9.294;2023-08-20T03:21:18;99947.41;;;26.40;76.80
18819;BME280;9537;45.594;9.294;2023-08-20T03:22:18;99943.09;;;26.39;76.57
18819;BME280;9537;45.594;9.294;2023-08-20T03:23:19;99943.91;;;26.39;76.44
18819;BME280;9537;45.594;9.294;2023-08-20T03:24:21;99943.34;;;26.37;76.95
18819;BME280;9537;45.594;9.294;2023-08-20T03:25:22;99957.16;;;26.36;77.00
18819;BME280;9537;45.594;9.294;2023-08-20T03:26:23;99952.00;;;26.34;76.71
18819;BME280;9537;45.594;9.294;2023-08-20T03:27:24;99953.91;;;26.34;77.07
18819;BME280;9537;45.594;9.294;2023-08-20T03:28:26;99951.75;;;26.31;77.06
18819;BME280;9537;45.594;9.294;2023-08-20T03:29:27;99959.31;;;26.34;77.10
18819;BME280;9537;45.594;9.294;2023-08-20T03:30:28;99960.13;;;26.34;77.16
18819;BME280;9537;45.594;9.294;2023-08-20T03:31:31;99959.31;;;26.34;77.34
18819;BME280;9537;45.594;9.294;2023-08-20T03:32:33;99955.00;;;26.33;77.38
18819;BME280;9537;45.594;9.294;2023-08-20T03:33:33;99954.16;;;26.32;77.38
18819;BME280;9537;45.594;9.294;2023-08-20T03:34:35;99951.75;;;26.31;77.45
18819;BME280;9537;45.594;9.294;2023-08-20T03:35:36;99950.94;;;26.30;77.71
18819;BME280;9537;45.594;9.294;2023-08-20T03:36:37;99950.09;;;26.29;77.48
18819;BME280;9537;45.594;9.294;2023-08-20T03:37:38;99954.72;;;26.29;77.33
18819;BME280;9537;45.594;9.294;2023-08-20T03:38:40;99948.78;;;26.27;77.64
18819;BME280;9537;45.594;9.294;2023-08-20T03:39:41;99949.03;;;26.25;77.94
18819;BME280;9537;45.594;9.294;2023-08-20T03:40:42;99952.84;;;26.24;77.74
18819;BME280;9537;45.594;9.294;2023-08-20T03:41:43;99953.09;;;26.23;77.44
18819;BME280;9537;45.594;9.294;2023-08-20T03:42:45;99953.63;;;26.25;77.60
18819;BME280;9537;45.594;9.294;2023-08-20T03:43:45;99949.03;;;26.25;77.43
18819;BME280;9537;45.594;9.294;2023-08-20T03:44:47;99944.72;;;26.24;77.65
18819;BME280;9537;45.594;9.294;2023-08-20T03:45:50;99946.56;;;26.24;77.69
18819;BME280;9537;45.594;9.294;2023-08-20T03:46:53;99949.81;;;26.21;77.48
18819;BME280;9537;45.594;9.294;2023-08-20T03:47:54;99947.97;;;26.21;77.50
18819;BME280;9537;45.594;9.294;2023-08-20T03:48:56;99945.50;;;26.20;77.76
18819;BME280;9537;45.594;9.294;2023-08-20T03:49:56;99950.91;;;26.20;77.08
18819;BME280;9537;45.594;9.294;2023-08-20T03:50:58;99949.56;;;26.17;77.56
18819;BME280;9537;45.594;9.294;2023-08-20T03:51:59;99940.63;;;26.17;77.45
18819;BME280;9537;45.594;9.294;2023-08-20T03:53:02;99940.06;;;26.15;77.65
18819;BME280;9537;45.594;9.294;2023-08-20T03:54:03;99946.59;;;26.14;77.24
18819;BME280;9537;45.594;9.294;2023-08-20T03:55:05;99945.78;;;26.13;77.37
18819;BME280;9537;45.594;9.294;2023-08-20T03:56:06;99945.78;;;26.13;77.75
18819;BME280;9537;45.594;9.294;2023-08-20T03:57:08;99944.41;;;26.11;77.68
18819;BME280;9537;45.594;9.294;2023-08-20T03:58:09;99945.47;;;26.10;77.44
18819;BME280;9537;45.594;9.294;2023-08-20T03:59:09;99940.34;;;26.08;77.54
18819;BME280;9537;45.594;9.294;2023-08-20T04:00:12;99950.38;;;26.08;77.70
18819;BME280;9537;45.594;9.294;2023-08-20T04:01:13;99947.09;;;26.05;77.65
18819;BME280;9537;45.594;9.294;2023-08-20T04:02:16;99951.97;;;26.09;77.69
18819;BME280;9537;45.594;9.294;2023-08-20T04:03:17;99953.06;;;26.08;77.62
18819;BME280;9537;45.594;9.294;2023-08-20T04:04:19;99953.88;;;26.08;77.60
18819;BME280;9537;45.594;9.294;2023-08-20T04:05:22;99952.53;;;26.05;77.79
18819;BME280;9537;45.594;9.294;2023-08-20T04:06:23;99944.94;;;26.02;78.02
18819;BME280;9537;45.594;9.294;2023-08-20T04:07:24;99954.16;;;26.01;77.94
18819;BME280;9537;45.594;9.294;2023-08-20T04:08:26;99949.78;;;26.00;77.82
18819;BME280;9537;45.594;9.294;2023-08-20T04:09:26;99947.66;;;26.02;77.71
18819;BME280;9537;45.594;9.294;2023-08-20T04:10:28;99949.78;;;26.00;77.89
18819;BME280;9537;45.594;9.294;2023-08-20T04:11:29;99945.75;;;26.03;77.77
18819;BME280;9537;45.594;9.294;2023-08-20T04:12:31;99951.97;;;26.03;78.17
18819;BME280;9537;45.594;9.294;2023-08-20T04:13:31;99951.97;;;26.03;78.20
18819;BME280;9537;45.594;9.294;2023-08-20T04:14:33;99953.88;;;26.03;77.62
18819;BME280;9537;45.594;9.294;2023-08-20T04:15:34;99949.53;;;26.02;78.10
18819;BME280;9537;45.594;9.294;2023-08-20T04:16:35;99954.41;;;26.00;77.78
18819;BME280;9537;45.594;9.294;2023-08-20T04:17:38;99949.78;;;26.00;77.93
18819;BME280;9537;45.594;9.294;2023-08-20T04:18:39;99955.19;;;25.95;78.15
18819;BME280;9537;45.594;9.294;2023-08-20T04:19:40;99953.31;;;25.96;78.09
18819;BME280;9537;45.594;9.294;2023-08-20T04:20:42;99950.63;;;25.96;78.08
18819;BME280;9537;45.594;9.294;2023-08-20T04:21:42;99955.47;;;25.94;78.04
18819;BME280;9537;45.594;9.294;2023-08-20T04:22:44;99958.44;;;25.92;78.50
18819;BME280;9537;45.594;9.294;2023-08-20T04:23:45;99964.69;;;25.93;78.64
18819;BME280;9537;45.594;9.294;2023-08-20T04:24:47;99962.47;;;25.90;78.67
18819;BME280;9537;45.594;9.294;2023-08-20T04:25:47;99967.63;;;25.91;78.83
18819;BME280;9537;45.594;9.294;2023-08-20T04:26:49;99960.88;;;25.89;78.44
18819;BME280;9537;45.594;9.294;2023-08-20T04:27:50;99967.38;;;25.88;78.91
18819;BME280;9537;45.594;9.294;2023-08-20T04:28:52;99968.44;;;25.87;78.68
18819;BME280;9537;45.594;9.294;2023-08-20T04:29:52;99963.03;;;25.87;78.75
18819;BME280;9537;45.594;9.294;2023-08-20T04:30:54;99966.81;;;25.86;79.43
18819;BME280;9537;45.594;9.294;2023-08-20T04:31:55;99973.84;;;25.87;79.38
18819;BME280;9537;45.594;9.294;2023-08-20T04:32:58;99970.31;;;25.86;79.36
18819;BME280;9537;45.594;9.294;2023-08-20T04:33:59;99969.81;;;25.84;79.55
18819;BME280;9537;45.594;9.294;2023-08-20T04:35:01;99971.13;;;25.81;79.71
18819;BME280;9537;45.594;9.294;2023-08-20T04:36:01;99978.16;;;25.82;79.53
18819;BME280;9537;45.594;9.294;2023-08-20T04:37:03;99974.63;;;25.82;79.19
18819;BME280;9537;45.594;9.294;2023-08-20T04:38:04;99974.06;;;25.80;79.33
18819;BME280;9537;45.594;9.294;2023-08-20T04:39:06;99972.16;;;25.80;79.60
18819;BME280;9537;45.594;9.294;2023-08-20T04:40:07;99976.53;;;25.81;79.48
18819;BME280;9537;45.594;9.294;2023-08-20T04:41:09;99977.06;;;25.78;79.38
18819;BME280;9537;45.594;9.294;2023-08-20T04:42:10;99971.66;;;25.78;79.75
18819;BME280;9537;45.594;9.294;2023-08-20T04:43:12;99977.06;;;25.78;79.49
18819;BME280;9537;45.594;9.294;2023-08-20T04:44:12;99983.28;;;25.79;79.49
18819;BME280;9537;45.594;9.294;2023-08-20T04:45:14;99977.88;;;25.79;79.47
18819;BME280;9537;45.594;9.294;2023-08-20T04:46:18;99981.63;;;25.78;79.60
18819;BME280;9537;45.594;9.294;2023-08-20T04:47:21;99991.38;;;25.79;79.89
18819;BME280;9537;45.594;9.294;2023-08-20T04:48:23;99982.97;;;25.75;79.69
18819;BME280;9537;45.594;9.294;2023-08-20T04:49:25;99993.78;;;25.75;79.76
18819;BME280;9537;45.594;9.294;2023-08-20T04:50:28;99986.75;;;25.74;80.21
18819;BME280;9537;45.594;9.294;2023-08-20T04:51:30;99984.63;;;25.76;79.95
18819;BME280;9537;45.594;9.294;2023-08-20T04:52:30;99986.50;;;25.76;80.27
18819;BME280;9537;45.594;9.294;2023-08-20T04:53:32;99982.97;;;25.75;79.99
18819;BME280;9537;45.594;9.294;2023-08-20T04:54:33;99983.81;;;25.76;79.98
18819;BME280;9537;45.594;9.294;2023-08-20T04:55:35;99986.50;;;25.76;80.06
18819;BME280;9537;45.594;9.294;2023-08-20T04:56:36;99985.44;;;25.77;79.53
18819;BME280;9537;45.594;9.294;2023-08-20T04:57:37;99989.75;;;25.78;79.99
18819;BME280;9537;45.594;9.294;2023-08-20T04:58:38;99994.09;;;25.79;79.69
18819;BME280;9537;45.594;9.294;2023-08-20T04:59:40;99986.22;;;25.77;79.53
18819;BME280;9537;45.594;9.294;2023-08-20T05:00:43;99991.94;;;25.76;79.53
18819;BME280;9537;45.594;9.294;2023-08-20T05:01:45;99989.50;;;25.79;79.76
18819;BME280;9537;45.594;9.294;2023-08-20T05:02:45;99994.34;;;25.77;79.69
18819;BME280;9537;45.594;9.294;2023-08-20T05:03:48;99986.50;;;25.76;79.68
18819;BME280;9537;45.594;9.294;2023-08-20T05:04:49;99988.38;;;25.75;79.57
18819;BME280;9537;45.594;9.294;2023-08-20T05:05:51;99992.19;;;25.74;79.56
18819;BME280;9537;45.594;9.294;2023-08-20T05:06:52;99985.97;;;25.74;79.94
18819;BME280;9537;45.594;9.294;2023-08-20T05:07:53;99994.88;;;25.74;79.86
18819;BME280;9537;45.594;9.294;2023-08-20T05:08:54;99991.09;;;25.75;79.82
18819;BME280;9537;45.594;9.294;2023-08-20T05:09:56;99992.97;;;25.75;79.77
18819;BME280;9537;45.594;9.294;2023-08-20T05:10:56;99991.94;;;25.76;79.93
18819;BME280;9537;45.594;9.294;2023-08-20T05:11:58;99991.94;;;25.76;80.19
18819;BME280;9537;45.594;9.294;2023-08-20T05:12:59;99985.69;;;25.75;80.26
18819;BME280;9537;45.594;9.294;2023-08-20T05:14:01;99994.63;;;25.76;80.04
18819;BME280;9537;45.594;9.294;2023-08-20T05:15:02;99995.97;;;25.73;80.27
18819;BME280;9537;45.594;9.294;2023-08-20T05:16:03;99990.03;;;25.76;80.11
18819;BME280;9537;45.594;9.294;2023-08-20T05:17:05;99993.53;;;25.77;79.97
18819;BME280;9537;45.594;9.294;2023-08-20T05:18:05;100000.84;;;25.76;79.84
18819;BME280;9537;45.594;9.294;2023-08-20T05:19:08;100000.03;;;25.76;80.22
18819;BME280;9537;45.594;9.294;2023-08-20T05:20:10;100003.56;;;25.76;80.11
18819;BME280;9537;45.594;9.294;2023-08-20T05:21:11;100003.81;;;25.75;79.91
18819;BME280;9537;45.594;9.294;2023-08-20T05:22:13;100002.44;;;25.72;80.23
18819;BME280;9537;45.594;9.294;2023-08-20T05:23:15;100005.97;;;25.73;80.29
18819;BME280;9537;45.594;9.294;2023-08-20T05:24:16;100006.78;;;25.73;80.60
18819;BME280;9537;45.594;9.294;2023-08-20T05:25:17;100003.81;;;25.75;80.56
18819;BME280;9537;45.594;9.294;2023-08-20T05:26:18;100002.75;;;25.76;80.06
18819;BME280;9537;45.594;9.294;2023-08-20T05:27:20;100010.84;;;25.76;80.41
18819;BME280;9537;45.594;9.294;2023-08-20T05:28:21;100003.81;;;25.75;80.33
18819;BME280;9537;45.594;9.294;2023-08-20T05:29:22;100009.78;;;25.77;79.97
18819;BME280;9537;45.594;9.294;2023-08-20T05:30:23;100010.84;;;25.76;80.02
18819;BME280;9537;45.594;9.294;2023-08-20T05:31:25;100009.22;;;25.75;80.35
18819;BME280;9537;45.594;9.294;2023-08-20T05:32:26;100008.16;;;25.76;80.24
18819;BME280;9537;45.594;9.294;2023-08-20T05:33:28;100003.81;;;25.75;80.64